Time;durP1;ratioP1;P1;durP2;ratioP2;P2;SDS_P1;SDS_P2;PMS_P1;PMS_P2;Temp;Humidity;BMP_temperature;BMP_pressure;BME280_temperature;BME280_humidity;BME280_pressure;Samples;Min_cycle;Max_cycle;Signal;HPM_P1;HPM_P2
2021/09/16 00:00:38;;;;;;;4.35;1.50;;;;;;;10.40;57.38;99080.28;4996067;28;20144;-77
2021/09/16 00:03:06;;;;;;;3.92;1.60;;;;;;;10.29;57.63;99068.63;4996895;28;20528;-77
2021/09/16 00:05:34;;;;;;;4.60;1.80;;;;;;;10.43;57.54;99087.09;5005827;28;20492;-76
2021/09/16 00:08:00;;;;;;;4.57;1.70;;;;;;;10.34;57.55;99087.72;5021594;28;20045;-77
2021/09/16 00:10:26;;;;;;;6.72;1.48;;;;;;;10.37;57.33;99091.75;5012768;28;20056;-77
2021/09/16 00:12:52;;;;;;;3.30;1.60;;;;;;;10.35;57.19;99089.34;4999117;28;20069;-77
2021/09/16 00:15:18;;;;;;;4.57;1.80;;;;;;;10.38;57.13;99092.59;4990563;28;20291;-77
2021/09/16 00:17:45;;;;;;;4.07;1.77;;;;;;;10.40;56.81;99084.91;5009258;28;20320;-77
2021/09/16 00:20:13;;;;;;;3.80;1.63;;;;;;;10.33;57.11;99080.63;5005794;28;20049;-77
2021/09/16 00:22:39;;;;;;;4.90;1.60;;;;;;;10.43;56.88;99092.56;5025825;28;20516;-78
2021/09/16 00:25:08;;;;;;;5.47;1.85;;;;;;;10.37;56.79;99097.22;5020061;28;20046;-77
2021/09/16 00:27:34;;;;;;;3.95;1.45;;;;;;;10.42;56.87;99099.13;4992616;28;20049;-77
2021/09/16 00:30:00;;;;;;;4.90;1.67;;;;;;;10.44;56.72;99103.22;5000988;28;20053;-77
2021/09/16 00:32:26;;;;;;;8.88;1.80;;;;;;;10.42;56.49;99105.41;5027001;28;20050;-77
2021/09/16 00:34:52;;;;;;;5.20;1.75;;;;;;;10.41;56.43;99101.06;5012591;28;20299;-77
2021/09/16 00:37:19;;;;;;;4.90;1.60;;;;;;;10.44;56.21;99095.00;5006667;28;20055;-78
2021/09/16 00:39:45;;;;;;;;;;;;;;;10.42;56.32;99093.66;5004038;28;20049;-76
2021/09/16 00:42:15;;;;;;;3.70;1.50;;;;;;;10.36;56.36;99092.88;4992980;28;19925;-76
2021/09/16 00:44:41;;;;;;;5.00;1.70;;;;;;;10.40;56.47;99104.88;4994504;28;20064;-77
2021/09/16 00:47:07;;;;;;;8.02;2.00;;;;;;;10.34;56.51;99104.09;5008929;28;20050;-77
2021/09/16 00:49:33;;;;;;;3.03;1.40;;;;;;;10.32;56.79;99119.97;4985189;28;20073;-77
2021/09/16 00:52:00;;;;;;;5.72;1.60;;;;;;;10.28;56.54;99115.38;5013315;28;20774;-77
2021/09/16 00:54:31;;;;;;;4.78;1.60;;;;;;;10.41;56.55;99122.09;4992681;28;20133;-77
2021/09/16 00:56:58;;;;;;;3.05;1.50;;;;;;;10.42;56.41;99126.44;5010119;28;20077;-77
2021/09/16 00:59:25;;;;;;;4.80;1.70;;;;;;;10.46;55.96;99125.59;5008753;28;20054;-76
2021/09/16 01:01:51;;;;;;;3.70;1.52;;;;;;;10.43;56.11;99128.09;5012621;28;20462;-77
2021/09/16 01:04:17;;;;;;;5.28;1.70;;;;;;;10.42;56.07;99126.44;5026521;28;20058;-77
2021/09/16 01:06:43;;;;;;;4.88;1.73;;;;;;;10.35;56.18;99133.06;5023296;28;20064;-76
2021/09/16 01:09:10;;;;;;;4.07;1.75;;;;;;;10.26;56.65;99132.06;4978325;28;20448;-77
2021/09/16 01:11:37;;;;;;;3.95;1.80;;;;;;;10.26;56.72;99118.38;4998856;28;20048;-77
2021/09/16 01:14:03;;;;;;;;;;;;;;;10.36;56.47;99129.22;4994720;28;20463;-75
2021/09/16 01:16:29;;;;;;;3.97;2.03;;;;;;;10.33;56.46;99134.44;5008403;28;19960;-76
2021/09/16 01:18:55;;;;;;;3.58;1.63;;;;;;;10.31;56.29;99128.47;5013859;28;20053;-77
2021/09/16 01:21:21;;;;;;;3.10;1.60;;;;;;;10.31;56.26;99131.19;5024409;28;20677;-77
2021/09/16 01:23:49;;;;;;;4.65;1.70;;;;;;;10.38;56.30;99137.13;5010350;28;20069;-76
2021/09/16 01:26:15;;;;;;;;;;;;;;;10.40;56.26;99134.09;5006316;28;20132;-77
2021/09/16 01:28:41;;;;;;;7.18;1.67;;;;;;;10.33;56.26;99151.66;4992611;28;19960;-76
2021/09/16 01:31:07;;;;;;;4.47;1.80;;;;;;;10.28;56.27;99145.44;4998067;28;20045;-76
2021/09/16 01:33:33;;;;;;;4.40;1.65;;;;;;;10.32;56.31;99154.69;5010648;28;20137;-75
2021/09/16 01:35:59;;;;;;;2.53;1.40;;;;;;;10.30;56.36;99149.50;4995758;28;20068;-76
2021/09/16 01:38:25;;;;;;;3.42;1.77;;;;;;;10.27;56.33;99158.28;5014161;28;20514;-76
2021/09/16 01:40:52;;;;;;;5.47;1.63;;;;;;;10.24;56.53;99147.91;5031592;28;20061;-76
2021/09/16 01:43:18;;;;;;;3.33;1.65;;;;;;;10.20;56.48;99158.59;4994690;28;20421;-76
2021/09/16 01:45:45;;;;;;;11.27;1.70;;;;;;;10.22;56.42;99158.31;4979901;28;20049;-77
2021/09/16 01:48:11;;;;;;;9.98;1.88;;;;;;;10.25;55.92;99167.88;5013672;28;20571;-78
2021/09/16 01:50:37;;;;;;;6.38;1.88;;;;;;;10.26;55.99;99170.31;5013744;28;20085;-78
2021/09/16 01:53:02;;;;;;;5.07;1.80;;;;;;;10.27;55.73;99165.66;5011943;28;20084;-78
2021/09/16 01:55:29;;;;;;;3.90;1.60;;;;;;;10.33;55.86;99164.50;5013647;28;20057;-78
2021/09/16 01:57:56;;;;;;;6.50;2.10;;;;;;;10.31;55.77;99173.00;5012812;28;20061;-78
2021/09/16 02:00:22;;;;;;;7.28;1.75;;;;;;;10.23;55.54;99167.34;5030977;28;20140;-78
2021/09/16 02:02:48;;;;;;;6.13;1.60;;;;;;;10.26;55.58;99177.69;5024788;28;20058;-78
2021/09/16 02:05:15;;;;;;;4.65;1.80;;;;;;;10.26;56.04;99178.50;5015185;28;20104;-78
2021/09/16 02:07:41;;;;;;;9.60;1.80;;;;;;;10.30;55.85;99176.84;5016180;28;20041;-79
2021/09/16 02:10:08;;;;;;;6.57;1.80;;;;;;;10.25;55.73;99176.88;5035329;28;20680;-78
2021/09/16 02:12:34;;;;;;;5.13;1.60;;;;;;;10.23;55.77;99184.53;5005053;28;20053;-78
2021/09/16 02:15:02;;;;;;;4.40;1.73;;;;;;;10.25;55.89;99182.34;4997790;28;20083;-78
2021/09/16 02:17:28;;;;;;;3.78;1.70;;;;;;;10.25;55.77;99187.81;5006179;28;20065;-79
2021/09/16 02:19:54;;;;;;;4.05;1.50;;;;;;;10.24;55.68;99177.97;5032144;28;20057;-78
2021/09/16 02:22:20;;;;;;;5.13;1.92;;;;;;;10.22;55.67;99188.38;4980225;28;20050;-76
2021/09/16 02:24:46;;;;;;;8.73;1.90;;;;;;;10.19;55.76;99188.97;4984554;28;20049;-77
2021/09/16 02:27:12;;;;;;;4.90;1.90;;;;;;;10.17;56.18;99191.97;4983063;28;20047;-77
2021/09/16 02:29:38;;;;;;;5.80;2.00;;;;;;;10.05;56.55;99188.78;5011652;28;20058;-77
2021/09/16 02:32:07;;;;;;;5.70;1.77;;;;;;;10.06;56.53;99199.44;5034083;28;20100;-77
2021/09/16 02:34:33;;;;;;;4.32;1.80;;;;;;;10.15;56.13;99201.56;4994807;28;20526;-77
2021/09/16 02:36:58;;;;;;;5.00;2.15;;;;;;;10.12;56.13;99197.47;5009293;28;20054;-77
2021/09/16 02:39:24;;;;;;;10.50;2.80;;;;;;;10.09;56.00;99192.59;4983371;28;20503;-79
2021/09/16 02:41:50;;;;;;;8.57;2.97;;;;;;;10.22;55.81;99202.03;5000943;28;20299;-79
2021/09/16 02:44:16;;;;;;;9.82;3.80;;;;;;;10.11;56.01;99205.94;4998692;28;20085;-77
2021/09/16 02:46:42;;;;;;;11.35;3.60;;;;;;;10.13;56.20;99206.47;4994799;28;20058;-78
2021/09/16 02:49:10;;;;;;;11.68;4.38;;;;;;;10.10;56.01;99201.59;4998015;28;20046;-77
2021/09/16 02:51:36;;;;;;;14.18;5.50;;;;;;;10.14;56.73;99203.47;5015562;28;20073;-77
2021/09/16 02:54:02;;;;;;;9.50;3.92;;;;;;;10.14;56.40;99213.56;4991748;28;20518;-77
2021/09/16 02:56:28;;;;;;;7.20;2.60;;;;;;;9.97;56.52;99205.81;4996714;28;20485;-76
2021/09/16 02:58:54;;;;;;;8.40;3.28;;;;;;;10.04;56.56;99218.03;5012696;28;20054;-77
2021/09/16 03:01:20;;;;;;;9.90;4.22;;;;;;;9.95;56.72;99214.28;5010221;28;20515;-77
2021/09/16 03:03:46;;;;;;;10.00;3.30;;;;;;;10.00;56.49;99229.81;5009712;28;20053;-77
2021/09/16 03:06:14;;;;;;;10.90;2.97;;;;;;;9.92;56.47;99217.56;5009826;28;20050;-77
2021/09/16 03:08:40;;;;;;;8.60;3.60;;;;;;;9.96;56.78;99235.03;4998637;28;20058;-76
2021/09/16 03:11:06;;;;;;;7.80;2.63;;;;;;;9.90;56.87;99242.44;5009408;28;20140;-76
2021/09/16 03:13:32;;;;;;;7.15;2.00;;;;;;;9.87;56.92;99212.97;4996491;28;20142;-75
2021/09/16 03:15:58;;;;;;;5.75;1.67;;;;;;;9.98;56.77;99234.75;5006503;28;20054;-75
2021/09/16 03:18:24;;;;;;;7.10;1.60;;;;;;;9.85;56.76;99223.34;4990132;28;20050;-76
2021/09/16 03:20:50;;;;;;;6.68;1.80;;;;;;;9.97;56.93;99236.66;5011628;28;20077;-76
2021/09/16 03:23:17;;;;;;;8.07;1.38;;;;;;;9.92;57.08;99244.88;4979066;28;20133;-75
2021/09/16 03:25:43;;;;;;;7.20;1.70;;;;;;;9.91;56.66;99246.00;4989613;28;20108;-76
2021/09/16 03:28:09;;;;;;;5.30;1.67;;;;;;;9.84;57.11;99249.03;5009423;28;20050;-77
2021/09/16 03:30:35;;;;;;;6.50;1.80;;;;;;;9.75;57.40;99246.09;5010311;28;20085;-77
2021/09/16 03:33:01;;;;;;;12.15;1.50;;;;;;;9.76;57.35;99244.19;4989671;28;20641;-76
2021/09/16 03:35:27;;;;;;;3.65;1.50;;;;;;;9.74;57.42;99229.97;4973233;28;20077;-77
2021/09/16 03:37:53;;;;;;;9.25;1.67;;;;;;;9.81;57.66;99243.31;4979206;28;20145;-77
2021/09/16 03:40:20;;;;;;;6.40;1.70;;;;;;;9.78;57.81;99248.25;5009882;28;20072;-77
2021/09/16 03:42:46;;;;;;;;;;;;;;;9.91;57.92;99249.53;4996168;28;20046;-78
2021/09/16 03:45:12;;;;;;;4.20;1.50;;;;;;;9.82;57.99;99243.03;4996217;28;19925;-78
2021/09/16 03:47:38;;;;;;;6.38;1.60;;;;;;;9.77;58.39;99248.53;5009778;28;20065;-78
2021/09/16 03:50:05;;;;;;;5.07;1.67;;;;;;;9.71;58.54;99236.84;4999310;28;20049;-77
2021/09/16 03:52:31;;;;;;;4.20;1.58;;;;;;;9.66;59.26;99245.03;5007398;28;20050;-78
2021/09/16 03:54:57;;;;;;;4.70;1.60;;;;;;;9.64;59.25;99247.25;4989969;28;20135;-77
2021/09/16 03:57:24;;;;;;;3.30;1.48;;;;;;;9.69;59.70;99249.97;5008156;28;20137;-77
2021/09/16 03:59:50;;;;;;;6.55;1.67;;;;;;;9.65;60.42;99252.44;5010065;28;20073;-77
2021/09/16 04:02:16;;;;;;;4.18;1.40;;;;;;;9.58;60.47;99257.38;5013130;28;20050;-75
2021/09/16 04:04:42;;;;;;;4.22;1.30;;;;;;;9.61;60.64;99267.75;5004266;28;20061;-75
2021/09/16 04:07:08;;;;;;;8.95;1.50;;;;;;;9.63;60.43;99262.00;5011330;28;20070;-75
2021/09/16 04:09:34;;;;;;;5.85;1.60;;;;;;;9.63;60.80;99275.63;5029266;28;20073;-77
2021/09/16 04:12:00;;;;;;;4.95;1.50;;;;;;;9.62;61.29;99276.75;5019465;28;20132;-78
2021/09/16 04:14:27;;;;;;;8.35;1.70;;;;;;;9.67;61.12;99279.44;5006599;28;20049;-77
2021/09/16 04:16:53;;;;;;;5.68;1.85;;;;;;;9.69;60.86;99277.25;4999615;28;20057;-76
2021/09/16 04:19:19;;;;;;;5.43;1.50;;;;;;;9.65;61.39;99285.19;5022287;28;20065;-76
2021/09/16 04:21:53;;;;;;;5.00;1.38;;;;;;;9.68;61.46;99289.28;4994350;28;20153;-75
2021/09/16 04:24:29;;;;;;;5.47;1.52;;;;;;;9.56;61.65;99281.41;5015534;28;20062;-75
2021/09/16 04:27:56;;;;;;;5.72;1.63;;;;;;;9.65;61.81;99296.09;4977775;28;20065;-74
2021/09/16 04:30:30;;;;;;;5.45;1.60;;;;;;;9.28;61.38;99242.78;4983282;28;20581;-76
2021/09/16 04:32:57;;;;;;;7.38;1.70;;;;;;;9.77;61.38;99308.63;5013837;28;20054;-76
2021/09/16 04:35:23;;;;;;;8.13;1.70;;;;;;;9.83;61.50;99310.22;4981468;28;20073;-76
2021/09/16 04:37:49;;;;;;;8.50;1.80;;;;;;;9.77;61.64;99294.97;5014671;28;20049;-76
2021/09/16 04:40:15;;;;;;;5.38;1.77;;;;;;;9.90;61.64;99297.03;5015924;28;20089;-76
2021/09/16 04:42:41;;;;;;;10.43;2.08;;;;;;;9.88;61.98;99303.91;4979925;28;20088;-75
2021/09/16 04:45:08;;;;;;;5.82;1.70;;;;;;;9.89;61.90;99311.00;4977872;28;20066;-76
2021/09/16 04:47:39;;;;;;;7.95;2.00;;;;;;;9.91;62.29;99308.78;5005646;28;20108;-76
2021/09/16 04:50:07;;;;;;;4.88;1.70;;;;;;;9.89;62.44;99316.47;5016390;28;20058;-75
2021/09/16 04:52:32;;;;;;;8.55;2.20;;;;;;;9.90;62.52;99312.63;5017689;28;20076;-75
2021/09/16 04:54:58;;;;;;;7.25;1.73;;;;;;;9.93;62.27;99314.78;5020620;28;20538;-76
2021/09/16 04:57:25;;;;;;;8.07;2.08;;;;;;;9.91;62.50;99309.63;4991584;28;20128;-75
2021/09/16 04:59:53;;;;;;;7.80;1.93;;;;;;;9.97;62.28;99315.03;5012201;28;20061;-74
2021/09/16 05:02:19;;;;;;;9.45;2.33;;;;;;;9.95;62.46;99317.25;5025132;28;20079;-77
2021/09/16 05:04:46;;;;;;;7.32;2.10;;;;;;;9.89;62.77;99295.41;5013585;28;20053;-76
2021/09/16 05:07:12;;;;;;;7.93;2.20;;;;;;;9.91;63.16;99311.53;5035379;28;20045;-75
2021/09/16 05:10:23;;;;;;;6.25;2.10;;;;;;;9.67;63.83;99286.81;5053122;28;20056;-77
2021/09/16 05:12:49;;;;;;;8.20;2.35;;;;;;;9.71;63.81;99299.63;5028071;28;20178;-77
2021/09/16 05:15:18;;;;;;;5.32;1.90;;;;;;;9.77;63.84;99305.88;5060932;28;20522;-77
2021/09/16 05:17:44;;;;;;;5.78;2.08;;;;;;;9.83;64.15;99306.66;5051649;28;20053;-76
2021/09/16 05:20:12;;;;;;;7.95;2.22;;;;;;;9.84;64.30;99317.28;5063488;28;20056;-77
2021/09/16 05:23:27;;;;;;;4.93;1.80;;;;;;;9.82;64.57;99324.13;5059186;28;20152;-77
2021/09/16 05:26:16;;;;;;;6.45;2.10;;;;;;;9.72;64.38;99301.25;5016767;28;20144;-76
2021/09/16 05:28:53;;;;;;;6.80;1.90;;;;;;;9.65;64.83;99287.91;5036784;28;20049;-75
2021/09/16 05:34:45;;;;;;;4.82;1.85;;;;;;;9.90;64.87;99320.81;5053442;28;20139;-79
2021/09/16 05:37:13;;;;;;;8.18;2.25;;;;;;;9.84;65.26;99324.69;5051000;28;20060;-79
2021/09/16 05:39:58;;;;;;;8.27;2.03;;;;;;;9.89;65.45;99322.72;5049144;28;20049;-78
2021/09/16 05:42:25;;;;;;;5.57;2.05;;;;;;;9.93;65.28;99326.53;5054323;28;20055;-77
2021/09/16 05:44:53;;;;;;;;;;;;;;;10.03;65.17;99328.38;5071201;28;20102;-76
2021/09/16 05:47:20;;;;;;;7.45;2.10;;;;;;;9.66;65.13;99275.06;5062067;28;19924;-78
2021/09/16 05:49:56;;;;;;;6.75;2.20;;;;;;;9.81;65.20;99304.22;5063316;28;20080;-77
2021/09/16 05:52:32;;;;;;;5.38;1.90;;;;;;;9.83;65.21;99310.22;5062072;28;20469;-77
2021/09/16 05:54:58;;;;;;;5.07;2.28;;;;;;;9.75;65.09;99297.13;5042216;28;21503;-78
2021/09/16 05:57:24;;;;;;;6.43;2.33;;;;;;;9.94;65.17;99319.16;5048464;28;20057;-77
2021/09/16 05:59:53;;;;;;;6.60;2.40;;;;;;;10.06;65.41;99333.28;5049777;28;20053;-76
2021/09/16 06:02:19;;;;;;;8.75;2.70;;;;;;;10.10;65.34;99327.25;5062648;28;20119;-75
2021/09/16 06:04:45;;;;;;;7.85;2.67;;;;;;;10.14;65.50;99334.59;5057170;28;20583;-77
2021/09/16 06:07:11;;;;;;;11.90;2.67;;;;;;;10.16;65.51;99343.31;5054049;28;20107;-75
2021/09/16 06:09:41;;;;;;;9.32;2.53;;;;;;;10.18;65.75;99332.13;5066692;28;20048;-76
2021/09/16 06:12:08;;;;;;;9.13;2.72;;;;;;;10.20;65.67;99329.91;5041424;28;20072;-76
2021/09/16 06:14:34;;;;;;;10.90;2.60;;;;;;;10.26;65.35;99338.91;5038612;28;20133;-75
2021/09/16 06:17:01;;;;;;;8.85;2.80;;;;;;;10.19;65.86;99325.56;5064094;28;20123;-76
2021/09/16 06:19:27;;;;;;;6.60;2.50;;;;;;;10.29;65.71;99343.78;5066264;28;20072;-78
2021/09/16 06:21:56;;;;;;;6.85;2.55;;;;;;;10.35;65.59;99340.75;5070211;28;20078;-77
2021/09/16 06:24:29;;;;;;;8.35;2.70;;;;;;;10.36;65.53;99347.84;5050042;28;20081;-77
2021/09/16 06:26:59;;;;;;;10.05;2.80;;;;;;;10.34;65.62;99338.28;5059951;28;20049;-77
2021/09/16 06:29:25;;;;;;;8.60;2.95;;;;;;;10.28;65.91;99342.97;5070138;28;20143;-76
2021/09/16 06:31:51;;;;;;;9.63;3.00;;;;;;;10.33;65.83;99353.88;5059913;28;20049;-76
2021/09/16 06:34:17;;;;;;;10.27;3.45;;;;;;;10.39;65.79;99356.56;5051549;28;20146;-77
2021/09/16 06:36:46;;;;;;;9.27;3.22;;;;;;;10.39;65.91;99354.66;5047023;28;20505;-76
2021/09/16 06:39:14;;;;;;;7.25;2.78;;;;;;;10.39;65.86;99357.41;5046541;28;20433;-76
2021/09/16 06:41:40;;;;;;;9.80;3.03;;;;;;;10.42;65.98;99356.84;5047526;28;20525;-77
2021/09/16 06:44:09;;;;;;;9.48;3.10;;;;;;;10.49;65.93;99362.78;5049707;28;20152;-77
2021/09/16 06:46:35;;;;;;;11.85;2.50;;;;;;;10.47;65.66;99348.59;5053161;28;20250;-78
2021/09/16 06:49:01;;;;;;;9.82;3.30;;;;;;;10.56;65.83;99357.00;5048303;28;20110;-77
2021/09/16 06:51:27;;;;;;;8.10;2.72;;;;;;;10.57;65.76;99364.09;5052233;28;20052;-78
2021/09/16 06:53:53;;;;;;;10.07;2.50;;;;;;;10.62;65.53;99366.81;5052573;28;20084;-77
2021/09/16 06:56:19;;;;;;;9.13;3.40;;;;;;;10.58;65.95;99362.19;5046041;28;20056;-78
2021/09/16 06:58:45;;;;;;;12.50;3.40;;;;;;;10.61;65.85;99364.34;5055098;28;20056;-78
2021/09/16 07:01:13;;;;;;;13.10;4.10;;;;;;;10.65;65.53;99365.41;5039102;28;20060;-76
2021/09/16 07:03:39;;;;;;;9.65;3.50;;;;;;;10.68;65.42;99367.56;5053315;28;20132;-77
2021/09/16 07:06:05;;;;;;;13.55;4.28;;;;;;;10.72;65.38;99360.44;5028744;28;20148;-78
2021/09/16 07:08:31;;;;;;;9.07;3.47;;;;;;;10.80;65.22;99374.59;5056712;28;20048;-76
2021/09/16 07:10:59;;;;;;;7.75;2.70;;;;;;;10.85;64.70;99358.97;5052232;28;20537;-75
2021/09/16 07:13:25;;;;;;;7.63;2.88;;;;;;;10.96;64.70;99369.81;5052208;28;20052;-80
2021/09/16 07:15:55;;;;;;;8.82;2.40;;;;;;;11.00;64.68;99376.34;5037041;28;20076;-78
2021/09/16 07:18:23;;;;;;;8.93;2.60;;;;;;;11.03;64.59;99373.84;5047109;28;20574;-76
2021/09/16 07:20:49;;;;;;;10.35;2.80;;;;;;;11.10;63.97;99370.78;5049701;28;20540;-75
2021/09/16 07:23:15;;;;;;;7.75;2.50;;;;;;;11.13;64.04;99372.94;5054928;28;20053;-77
2021/09/16 07:25:41;;;;;;;6.82;2.45;;;;;;;11.17;63.63;99370.44;5067939;28;20068;-76
2021/09/16 07:28:07;;;;;;;8.13;2.45;;;;;;;11.21;63.53;99375.00;5053496;28;20049;-78
2021/09/16 07:30:34;;;;;;;6.50;2.15;;;;;;;11.21;63.35;99383.22;5044344;28;20413;-76
2021/09/16 07:33:00;;;;;;;6.75;2.60;;;;;;;11.23;63.27;99376.66;5051805;28;20087;-76
2021/09/16 07:35:27;;;;;;;8.82;2.63;;;;;;;11.20;62.94;99372.59;5043458;28;20057;-78
2021/09/16 07:37:53;;;;;;;5.80;2.30;;;;;;;11.30;62.72;99380.66;5055226;28;20061;-78
2021/09/16 07:40:20;;;;;;;8.07;2.50;;;;;;;11.33;62.48;99390.22;5066662;28;20049;-78
2021/09/16 07:42:46;;;;;;;13.48;2.38;;;;;;;11.30;62.53;99383.41;5065227;28;20084;-76
2021/09/16 07:45:14;;;;;;;10.35;2.53;;;;;;;11.28;62.64;99382.09;5068100;28;20041;-78
2021/09/16 07:47:40;;;;;;;10.30;2.45;;;;;;;11.26;62.51;99387.03;5084856;28;20057;-77
2021/09/16 07:50:06;;;;;;;11.25;2.65;;;;;;;11.33;61.98;99392.97;5069178;28;20060;-78
2021/09/16 07:52:34;;;;;;;7.32;2.30;;;;;;;11.41;61.85;99392.34;5069406;28;20171;-78
2021/09/16 07:54:59;;;;;;;9.93;2.20;;;;;;;11.38;62.27;99386.63;5053295;28;20045;-78
2021/09/16 07:57:25;;;;;;;8.68;2.33;;;;;;;11.48;61.88;99400.22;5051783;28;20065;-79
2021/09/16 07:59:51;;;;;;;9.80;2.13;;;;;;;11.51;61.62;99401.53;5035840;28;20053;-79
2021/09/16 08:02:17;;;;;;;8.77;2.55;;;;;;;11.52;61.73;99403.16;5059295;28;20068;-79
2021/09/16 08:04:43;;;;;;;11.38;2.28;;;;;;;11.51;61.40;99407.00;5052037;28;20057;-80
2021/09/16 08:07:09;;;;;;;8.50;2.08;;;;;;;11.45;61.15;99389.81;5051322;28;20117;-80
2021/09/16 08:09:37;;;;;;;8.52;1.75;;;;;;;11.58;60.92;99402.03;5052047;28;20508;-80
2021/09/16 08:12:03;;;;;;;10.32;2.22;;;;;;;11.57;61.02;99392.97;5035099;28;20513;-79
2021/09/16 08:14:31;;;;;;;6.78;1.85;;;;;;;11.64;61.09;99392.63;5037256;28;20045;-78
2021/09/16 08:16:58;;;;;;;9.85;2.00;;;;;;;11.70;60.95;99398.88;5064777;28;20061;-81
2021/09/16 08:19:24;;;;;;;7.68;2.15;;;;;;;11.74;61.14;99410.84;5053975;28;20072;-81
2021/09/16 08:21:50;;;;;;;14.27;2.00;;;;;;;11.72;60.92;99411.16;5055929;28;20095;-81
2021/09/16 08:24:19;;;;;;;7.30;2.03;;;;;;;11.69;60.72;99399.97;5044561;28;20052;-82
2021/09/16 08:27:28;;;;;;;6.10;2.17;;;;;;;11.23;60.94;99341.06;5068233;28;20064;-82
2021/09/16 08:30:29;;;;;;;9.57;2.08;;;;;;;11.40;60.82;99359.78;5027290;28;20061;-80
2021/09/16 08:33:25;;;;;;;7.45;1.80;;;;;;;11.69;60.86;99406.25;5053916;28;20053;-78
2021/09/16 08:36:07;;;;;;;15.98;2.10;;;;;;;11.66;60.82;99408.78;5059584;28;20121;-76
2021/09/16 08:38:33;;;;;;;17.75;4.93;;;;;;;11.68;60.73;99412.03;5046961;28;20064;-78
2021/09/16 08:41:03;;;;;;;9.80;3.07;;;;;;;11.56;60.88;99385.88;5046853;28;20057;-78
2021/09/16 08:43:34;;;;;;;11.02;3.05;;;;;;;11.78;60.97;99410.00;5053713;28;20413;-79
2021/09/16 08:46:02;;;;;;;10.25;2.50;;;;;;;11.78;60.88;99407.25;5047102;28;20430;-80
2021/09/16 08:48:28;;;;;;;;;;;;;;;11.79;60.68;99402.59;5052394;28;20144;-81
2021/09/16 08:50:54;;;;;;;9.53;2.50;;;;;;;12.01;60.04;99409.44;5047494;28;20027;-80
2021/09/16 08:53:21;;;;;;;6.00;1.88;;;;;;;12.30;59.08;99403.06;5016190;28;20065;-80
2021/09/16 08:55:49;;;;;;;7.53;2.03;;;;;;;12.66;58.63;99408.00;5046605;28;20053;-79
2021/09/16 08:58:18;;;;;;;9.27;2.33;;;;;;;12.86;58.33;99406.84;5049848;28;20060;-78
2021/09/16 09:00:46;;;;;;;8.98;2.13;;;;;;;12.93;57.99;99411.13;5062997;28;20060;-79
2021/09/16 09:03:16;;;;;;;8.82;2.30;;;;;;;12.77;57.86;99387.53;5052168;28;20053;-79
2021/09/16 09:05:45;;;;;;;9.68;2.25;;;;;;;12.63;57.78;99384.72;5051454;28;20083;-74
2021/09/16 09:08:11;;;;;;;13.13;2.53;;;;;;;12.89;57.65;99421.91;5063400;28;20071;-76
2021/09/16 09:10:40;;;;;;;6.75;2.40;;;;;;;12.85;57.21;99423.59;5059912;28;20065;-74
2021/09/16 09:13:10;;;;;;;12.70;2.50;;;;;;;12.88;56.72;99423.03;5056399;28;20083;-75
2021/09/16 09:15:38;;;;;;;10.20;2.40;;;;;;;12.84;56.57;99431.03;5057078;28;20057;-74
2021/09/16 09:18:07;;;;;;;;;;;;;;;12.80;56.35;99435.50;5054586;28;20076;-74
2021/09/16 09:20:34;;;;;;;8.68;2.78;;;;;;;12.73;56.54;99421.34;5065906;28;20392;-74
2021/09/16 09:23:20;;;;;;;11.55;2.40;;;;;;;12.68;56.24;99429.66;5063631;28;20057;-76
2021/09/16 09:25:46;;;;;;;18.42;2.97;;;;;;;12.61;56.29;99432.78;5062682;28;20044;-75
2021/09/16 09:28:26;;;;;;;10.38;2.03;;;;;;;12.37;55.99;99416.41;5050725;28;20045;-76
2021/09/16 09:30:53;;;;;;;10.32;2.38;;;;;;;12.40;56.05;99424.81;5026554;28;20101;-77
2021/09/16 09:33:31;;;;;;;7.93;2.45;;;;;;;12.41;55.96;99426.47;5055918;28;20064;-76
2021/09/16 09:36:07;;;;;;;7.57;2.60;;;;;;;12.36;55.84;99426.53;5047531;28;20067;-76
2021/09/16 09:38:51;;;;;;;10.38;2.83;;;;;;;12.28;56.19;99414.31;5032693;28;20431;-75
2021/09/16 09:41:32;;;;;;;12.45;2.40;;;;;;;12.42;56.14;99430.84;5031401;28;20055;-76
2021/09/16 09:44:08;;;;;;;11.05;2.60;;;;;;;12.26;56.04;99415.72;5043644;28;20526;-75
2021/09/16 09:46:43;;;;;;;16.55;2.70;;;;;;;12.38;55.95;99435.28;5060435;28;20049;-75
2021/09/16 09:49:13;;;;;;;19.40;2.70;;;;;;;12.37;56.11;99432.84;5032732;28;20079;-76
2021/09/16 09:51:42;;;;;;;11.60;2.80;;;;;;;12.28;56.02;99428.00;5051362;28;20048;-75
2021/09/16 09:54:17;;;;;;;8.68;2.42;;;;;;;12.22;56.30;99429.19;5051148;28;20170;-74
2021/09/16 09:57:00;;;;;;;14.82;3.13;;;;;;;12.20;56.50;99434.16;5054729;28;20061;-74
2021/09/16 09:59:26;;;;;;;11.25;2.78;;;;;;;12.19;56.88;99446.25;5049184;28;20072;-74
2021/09/16 10:02:03;;;;;;;12.50;2.92;;;;;;;12.10;56.67;99448.00;5049135;28;20061;-74
2021/09/16 10:04:31;;;;;;;14.20;3.10;;;;;;;12.00;56.77;99443.44;5050170;28;20057;-74
2021/09/16 10:06:58;;;;;;;11.75;2.78;;;;;;;11.94;56.92;99448.16;5052803;28;20053;-74
2021/09/16 10:09:24;;;;;;;11.00;2.45;;;;;;;11.94;57.04;99455.53;5044081;28;20061;-75
2021/09/16 10:11:53;;;;;;;12.27;2.88;;;;;;;11.93;56.74;99460.22;5044985;28;20068;-76
2021/09/16 10:14:19;;;;;;;18.40;2.63;;;;;;;11.90;56.72;99455.34;5062186;28;20057;-75
2021/09/16 10:16:46;;;;;;;10.48;2.40;;;;;;;11.82;56.70;99465.00;5049645;28;20053;-75
2021/09/16 10:19:12;;;;;;;11.00;2.70;;;;;;;11.77;56.85;99456.81;5044405;28;20060;-76
2021/09/16 10:21:40;;;;;;;11.50;2.75;;;;;;;11.77;56.48;99468.63;5043039;28;20060;-75
2021/09/16 10:24:13;;;;;;;10.75;2.47;;;;;;;11.82;56.28;99470.47;5045029;28;20053;-76
2021/09/16 10:26:43;;;;;;;7.95;2.22;;;;;;;11.80;56.15;99458.19;5050728;28;20505;-74
2021/09/16 10:29:58;;;;;;;13.55;2.47;;;;;;;11.82;55.88;99456.78;5055255;28;20053;-73
2021/09/16 10:36:50;;;;;;;15.13;2.28;;;;;;;11.86;55.66;99460.56;5009122;28;20057;-75
2021/09/16 10:40:20;;;;;;;;;;;;;;;;;;;;;
2021/09/16 10:43:22;;;;;;;9.45;2.30;;;;;;;11.92;55.47;99461.34;4970979;28;20069;-75
2021/09/16 10:45:49;;;;;;;11.95;2.60;;;;;;;11.94;54.94;99459.13;4968593;28;20071;-74
2021/09/16 10:48:27;;;;;;;11.90;2.60;;;;;;;11.98;55.16;99457.41;4971575;28;20055;-81
2021/09/16 10:50:55;;;;;;;7.32;2.55;;;;;;;12.03;54.47;99456.56;4968455;28;20062;-75
2021/09/16 10:53:49;;;;;;;7.28;2.28;;;;;;;12.00;54.15;99457.94;4957144;28;20141;-75
2021/09/16 10:56:43;;;;;;;7.28;2.25;;;;;;;12.05;53.55;99452.44;4943482;28;20086;-75
2021/09/16 10:59:10;;;;;;;8.63;2.30;;;;;;;12.00;53.39;99446.97;4920883;28;20096;-75
2021/09/16 11:01:58;;;;;;;7.13;2.03;;;;;;;11.91;52.85;99446.81;5011578;28;20539;-74
2021/09/16 11:04:25;;;;;;;8.85;2.28;;;;;;;11.96;52.70;99448.66;4994082;28;20192;-76
2021/09/16 11:06:55;;;;;;;8.60;2.63;;;;;;;11.94;52.38;99444.59;5010769;28;20087;-75
2021/09/16 11:09:25;;;;;;;9.38;2.40;;;;;;;11.94;52.50;99452.81;4992610;28;20499;-75
2021/09/16 11:11:54;;;;;;;8.13;2.55;;;;;;;12.00;52.87;99457.94;5012030;28;20364;-76
2021/09/16 11:14:36;;;;;;;9.57;2.50;;;;;;;12.01;53.16;99453.28;4994241;28;20060;-75
2021/09/16 11:17:08;;;;;;;12.90;3.80;;;;;;;12.04;53.25;99460.94;5013785;28;20050;-75
2021/09/16 11:19:44;;;;;;;9.30;2.80;;;;;;;12.04;53.07;99453.56;5016665;28;20418;-74
2021/09/16 11:22:10;;;;;;;10.55;3.00;;;;;;;12.13;53.22;99470.16;4990879;28;20050;-76
2021/09/16 11:24:38;;;;;;;13.45;3.55;;;;;;;12.09;53.40;99465.53;4994621;28;20422;-79
2021/09/16 11:27:07;;;;;;;12.30;3.53;;;;;;;12.05;53.59;99451.59;4994881;28;20050;-80
2021/09/16 11:33:22;;;;;;;12.30;2.85;;;;;;;11.99;53.36;99444.53;4987963;28;20053;-81
2021/09/16 11:36:21;;;;;;;15.68;2.70;;;;;;;12.03;53.48;99457.41;5001224;28;20060;-80
2021/09/16 11:39:32;;;;;;;15.15;2.53;;;;;;;12.08;53.44;99455.69;5008644;28;20045;-78
2021/09/16 11:42:20;;;;;;;10.82;2.67;;;;;;;12.05;53.69;99462.56;4929539;29;20062;-79
2021/09/16 11:45:13;;;;;;;10.63;2.83;;;;;;;11.95;53.90;99466.22;4991272;28;20107;-77
2021/09/16 11:47:48;;;;;;;14.40;2.92;;;;;;;11.88;54.05;99457.56;5033024;28;20057;-78
2021/09/16 11:50:33;;;;;;;10.77;2.80;;;;;;;11.85;54.38;99463.59;5001302;28;20065;-79
2021/09/16 11:53:09;;;;;;;14.43;2.88;;;;;;;11.80;54.43;99456.28;5022839;28;20080;-76
2021/09/16 11:55:37;;;;;;;22.48;3.00;;;;;;;11.96;54.59;99472.53;5027520;28;20212;-76
2021/09/16 11:58:11;;;;;;;;;;;;;;;11.92;54.79;99464.06;5060462;28;20090;-78
2021/09/16 12:00:47;;;;;;;12.95;2.97;;;;;;;11.81;54.30;99448.84;5050173;28;20027;-79